Time;durP1;ratioP1;P1;durP2;ratioP2;P2;SDS_P1;SDS_P2;PMS_P1;PMS_P2;Temp;Humidity;BMP_temperature;BMP_pressure;BME280_temperature;BME280_humidity;BME280_pressure;Samples;Min_cycle;Max_cycle;Signal;HPM_P1;HPM_P2
2022/02/09 00:07:49;;;;;;;3.95;3.55;;;8.80;99.90;;;;;;5030267;28;20202;-81
2022/02/09 00:10:17;;;;;;;5.00;4.35;;;8.90;99.90;;;;;;5033762;28;20205;-81
2022/02/09 00:12:49;;;;;;;6.05;4.53;;;8.80;99.90;;;;;;5033096;28;20228;-81
2022/02/09 00:15:28;;;;;;;4.57;3.47;;;8.80;99.90;;;;;;5033628;28;20249;-81
2022/02/09 00:18:04;;;;;;;7.90;4.15;;;8.80;99.90;;;;;;5013648;28;20747;-81
2022/02/09 00:21:00;;;;;;;8.93;4.60;;;8.80;99.90;;;;;;5016356;28;20242;-81
2022/02/09 06:28:13;;;;;;;4.95;3.28;;;6.60;99.90;;;;;;5264631;22;20243;-81
2022/02/09 06:30:39;;;;;;;4.22;3.45;;;6.60;99.90;;;;;;5080558;28;20209;-81
2022/02/09 06:33:06;;;;;;;6.22;3.80;;;6.60;99.90;;;;;;5079923;28;20201;-81
2022/02/09 06:35:33;;;;;;;4.75;3.72;;;6.70;99.90;;;;;;5078386;28;20270;-81
2022/02/09 06:38:01;;;;;;;3.47;3.17;;;6.60;99.90;;;;;;5076322;28;20225;-80
2022/02/09 06:40:29;;;;;;;3.45;3.10;;;6.60;99.90;;;;;;5076920;28;20248;-81
2022/02/09 06:42:56;;;;;;;6.10;3.50;;;6.60;99.90;;;;;;5076514;28;20283;-80
2022/02/09 06:45:27;;;;;;;4.22;3.92;;;6.60;99.90;;;;;;5076818;28;20208;-81
2022/02/09 06:47:54;;;;;;;4.07;3.67;;;6.60;99.90;;;;;;5076314;28;20221;-81
2022/02/09 06:50:29;;;;;;;3.97;3.45;;;6.40;99.90;;;;;;5077236;28;20204;-81
2022/02/09 06:53:05;;;;;;;7.28;3.55;;;6.50;99.90;;;;;;5080248;28;20250;-81
2022/02/09 06:55:33;;;;;;;11.32;4.65;;;6.50;99.90;;;;;;5079893;28;20205;-81
2022/02/09 06:58:05;;;;;;;5.70;3.92;;;6.50;99.90;;;;;;5079841;28;20228;-81
2022/02/09 07:00:40;;;;;;;5.70;3.80;;;6.40;99.90;;;;;;5078844;28;20203;-81
2022/02/09 07:03:08;;;;;;;5.57;3.90;;;6.40;99.90;;;;;;5079998;28;20276;-82
2022/02/09 07:05:34;;;;;;;3.95;3.65;;;6.30;99.90;;;;;;5076274;28;20294;-82
2022/02/09 07:08:01;;;;;;;4.47;4.18;;;6.30;99.90;;;;;;5079908;28;20227;-82
2022/02/09 07:10:28;;;;;;;5.60;4.10;;;6.30;99.90;;;;;;5079492;28;20209;-82
2022/02/09 07:12:55;;;;;;;4.10;3.90;;;6.20;99.90;;;;;;5071486;28;20205;-82
2022/02/09 07:15:28;;;;;;;7.55;4.20;;;6.10;99.90;;;;;;5073317;28;20193;-82
2022/02/09 07:17:58;;;;;;;4.35;3.95;;;6.10;99.90;;;;;;5069886;28;20255;-81
2022/02/09 07:20:30;;;;;;;5.13;4.68;;;6.10;99.90;;;;;;5067298;28;20197;-81
2022/02/09 07:23:00;;;;;;;4.88;3.35;;;6.10;99.90;;;;;;5068236;28;20734;-81
2022/02/09 07:25:31;;;;;;;6.10;4.15;;;6.10;99.90;;;;;;5067715;28;20688;-81
2022/02/09 07:28:01;;;;;;;5.35;4.70;;;6.10;99.90;;;;;;5067164;28;20220;-81
2022/02/09 07:30:28;;;;;;;4.25;3.67;;;6.10;99.90;;;;;;5067510;28;20201;-81
2022/02/09 07:32:59;;;;;;;4.75;4.35;;;6.10;99.90;;;;;;5067645;28;20202;-81
2022/02/09 07:35:25;;;;;;;5.53;3.85;;;6.10;99.90;;;;;;5068394;28;20203;-82
2022/02/09 07:37:52;;;;;;;5.45;4.97;;;6.10;99.90;;;;;;5070164;28;20228;-82
2022/02/09 07:40:19;;;;;;;4.18;3.85;;;6.00;99.90;;;;;;5071711;28;20196;-82
2022/02/09 07:42:49;;;;;;;8.90;4.10;;;6.00;99.90;;;;;;5078807;28;20205;-80
2022/02/09 07:48:25;;;;;;;5.03;4.63;;;6.00;99.90;;;;;;5042537;28;20270;-81
2022/02/09 07:51:13;;;;;;;5.65;5.15;;;6.00;99.90;;;;;;5081993;28;20200;-81
2022/02/09 07:53:48;;;;;;;5.13;3.88;;;6.10;99.90;;;;;;5081798;28;20193;-81
2022/02/09 07:56:15;;;;;;;6.55;4.07;;;6.20;99.90;;;;;;5080296;28;20243;-80
2022/02/09 07:58:42;;;;;;;5.15;4.72;;;6.20;99.90;;;;;;5077885;28;20225;-80
2022/02/09 08:01:09;;;;;;;5.68;4.72;;;6.20;99.90;;;;;;5074671;28;20197;-80
2022/02/09 08:03:37;;;;;;;4.57;3.97;;;6.20;99.90;;;;;;5078600;28;20209;-80
2022/02/09 08:06:04;;;;;;;4.20;3.60;;;6.20;99.90;;;;;;5078477;28;20201;-80
2022/02/09 08:08:33;;;;;;;6.43;4.28;;;6.20;99.90;;;;;;5077830;28;20236;-79
2022/02/09 08:11:12;;;;;;;4.35;3.95;;;6.20;99.90;;;;;;5077420;28;20209;-80
2022/02/09 08:27:24;;;;;;;4.38;3.38;;;5.70;99.90;;;;;;5077642;28;20362;-80
2022/02/09 08:30:01;;;;;;;4.63;3.25;;;5.70;99.90;;;;;;5078063;28;20233;-79
2022/02/09 08:32:41;;;;;;;3.20;2.92;;;5.70;99.90;;;;;;5077516;28;20209;-79
2022/02/09 08:35:10;;;;;;;5.32;4.25;;;5.80;99.90;;;;;;5078803;28;20231;-79
2022/02/09 08:37:37;;;;;;;4.03;3.67;;;5.80;99.90;;;;;;5078179;28;20231;-80
2022/02/09 08:40:05;;;;;;;7.35;3.53;;;5.90;99.90;;;;;;5077828;28;20212;-79
2022/02/09 08:42:33;;;;;;;3.33;2.97;;;6.10;99.90;;;;;;5078030;28;20219;-80
2022/02/09 08:45:00;;;;;;;5.30;3.45;;;6.20;99.90;;;;;;5077219;28;20212;-80
2022/02/09 08:47:27;;;;;;;3.50;3.28;;;6.30;99.90;;;;;;5078205;28;20217;-79
2022/02/09 08:49:54;;;;;;;8.95;4.00;;;6.60;99.90;;;;;;5078202;28;20211;-79
2022/02/09 08:52:22;;;;;;;4.30;3.40;;;6.80;99.90;;;;;;5077425;28;20212;-79
2022/02/09 08:54:50;;;;;;;7.60;3.50;;;7.00;99.90;;;;;;5077678;28;20213;-80
2022/02/09 08:57:19;;;;;;;5.22;3.75;;;7.00;99.90;;;;;;5077743;28;20234;-80
2022/02/09 08:59:48;;;;;;;3.72;3.05;;;7.20;99.90;;;;;;5078421;28;20200;-80
2022/02/09 09:02:18;;;;;;;3.33;3.13;;;7.20;99.90;;;;;;5077343;28;20201;-80
2022/02/09 09:04:49;;;;;;;6.80;2.75;;;7.30;99.90;;;;;;5077510;28;20216;-79
2022/02/09 09:07:21;;;;;;;5.43;4.03;;;7.40;99.90;;;;;;5078797;28;20231;-80
2022/02/09 09:09:59;;;;;;;3.90;3.05;;;7.40;99.90;;;;;;5083460;28;20205;-80
2022/02/09 09:18:49;;;;;;;5.53;2.90;;;7.60;99.90;;;;;;5052298;28;20229;-80
2022/02/09 10:00:34;;;;;;;4.10;2.75;;;8.90;99.90;;;;;;5048601;28;20193;-80
2022/02/09 10:03:02;;;;;;;4.10;2.38;;;8.80;99.90;;;;;;5081466;28;20205;-80
2022/02/09 10:14:07;;;;;;;6.65;2.85;;;8.80;99.90;;;;;;5085089;28;20268;-80
2022/02/09 10:31:31;;;;;;;3.95;3.13;;;9.80;99.90;;;;;;5080919;28;20281;-80
2022/02/09 10:34:03;;;;;;;3.88;2.10;;;9.90;99.90;;;;;;5081692;28;20291;-80
2022/02/09 10:36:31;;;;;;;2.90;2.40;;;10.00;99.90;;;;;;5081052;28;20225;-80
2022/02/09 10:39:08;;;;;;;4.80;2.60;;;10.10;99.90;;;;;;5082146;28;20761;-80
2022/02/09 10:41:40;;;;;;;3.72;3.45;;;10.40;99.90;;;;;;5080785;28;20510;-80
2022/02/09 10:44:09;;;;;;;3.92;3.35;;;10.50;99.90;;;;;;5080697;28;20733;-80
2022/02/09 10:46:46;;;;;;;3.95;2.05;;;10.70;99.90;;;;;;5080119;28;20569;-80
2022/02/09 10:49:17;;;;;;;2.67;2.40;;;10.90;99.90;;;;;;5080468;28;20207;-80
2022/02/09 10:51:48;;;;;;;2.30;2.10;;;11.10;99.90;;;;;;5079911;28;20450;-80
2022/02/09 10:54:17;;;;;;;3.67;3.37;;;11.30;99.30;;;;;;5080236;28;20549;-80
2022/02/09 10:56:46;;;;;;;4.37;2.70;;;11.40;99.20;;;;;;5080117;28;20483;-80
2022/02/09 10:59:15;;;;;;;4.57;2.07;;;11.60;99.10;;;;;;5080358;28;20457;-80
2022/02/09 11:01:43;;;;;;;1.67;1.57;;;11.80;99.30;;;;;;5080839;28;20454;-80
2022/02/09 11:04:11;;;;;;;3.07;2.87;;;12.00;98.70;;;;;;5081605;28;20447;-80
2022/02/09 11:06:41;;;;;;;5.00;2.50;;;12.20;97.90;;;;;;5080757;28;20454;-80
2022/02/09 11:09:09;;;;;;;1.93;1.83;;;12.70;97.90;;;;;;5080929;28;20455;-80
2022/02/09 11:11:39;;;;;;;3.10;2.10;;;13.40;97.90;;;;;;5081712;28;20454;-80
2022/02/09 11:14:07;;;;;;;2.10;1.80;;;14.20;95.80;;;;;;5082247;28;20840;-80
2022/02/09 11:16:36;;;;;;;5.27;2.07;;;15.00;94.10;;;;;;5081151;28;20448;-80
2022/02/09 11:19:03;;;;;;;3.40;2.00;;;15.30;92.10;;;;;;5080068;28;20455;-80
2022/02/09 11:21:33;;;;;;;2.77;1.63;;;15.70;91.80;;;;;;5080305;28;20457;-80
2022/02/09 11:24:08;;;;;;;2.97;1.87;;;16.40;90.60;;;;;;5080869;28;20875;-80
2022/02/09 11:26:42;;;;;;;2.57;1.63;;;16.90;88.50;;;;;;5079416;28;20458;-80
2022/02/09 11:29:34;;;;;;;1.43;1.33;;;17.20;88.10;;;;;;5080258;28;20464;-80
2022/02/09 11:32:27;;;;;;;3.23;1.97;;;17.60;85.90;;;;;;5080097;28;20452;-80
2022/02/09 11:35:34;;;;;;;1.30;1.20;;;17.80;84.70;;;;;;5079021;28;20456;-80
2022/02/09 11:40:55;;;;;;;1.40;1.30;;;18.70;80.10;;;;;;5079544;28;20432;-80
2022/02/09 11:43:40;;;;;;;3.20;1.37;;;19.10;79.30;;;;;;5080037;28;20453;-80
2022/02/09 11:46:29;;;;;;;1.77;1.67;;;19.20;77.30;;;;;;5079865;28;20450;-80
2022/02/09 11:52:41;;;;;;;1.13;1.03;;;19.30;75.60;;;;;;5076947;28;20454;-78
2022/02/09 11:56:27;;;;;;;2.87;1.37;;;19.50;77.50;;;;;;5078771;28;20490;-79
2022/02/09 11:59:21;;;;;;;2.43;1.13;;;20.00;75.20;;;;;;5079039;28;20483;-79
2022/02/09 12:08:43;;;;;;;2.00;1.00;;;20.20;72.30;;;;;;5079532;28;20511;-79
2022/02/09 12:10:15;;;;;;;2.00;1.13;;;20.60;72.80;;;;;;5079283;28;20489;-79
2022/02/09 12:12:58;;;;;;;0.77;0.77;;;20.80;69.90;;;;;;5078970;28;20444;-79
2022/02/09 12:15:52;;;;;;;1.50;1.00;;;21.20;69.70;;;;;;5078922;28;20451;-79
2022/02/09 12:18:28;;;;;;;1.80;1.70;;;21.40;68.90;;;;;;5079100;28;20514;-79
2022/02/09 12:21:02;;;;;;;1.83;1.10;;;21.50;67.10;;;;;;5079463;28;20443;-79
2022/02/09 12:23:40;;;;;;;1.00;0.80;;;21.80;67.50;;;;;;5078874;28;20448;-79
2022/02/09 12:26:09;;;;;;;1.20;1.10;;;22.30;67.10;;;;;;5078789;28;20453;-79
2022/02/09 12:28:38;;;;;;;2.23;1.33;;;22.40;65.60;;;;;;5078727;28;20546;-82
2022/02/09 12:31:10;;;;;;;1.30;1.20;;;22.60;64.80;;;;;;5078384;28;20486;-82
2022/02/09 12:33:41;;;;;;;0.90;0.90;;;22.50;63.50;;;;;;5078401;28;20446;-82
2022/02/09 12:36:11;;;;;;;0.70;0.70;;;22.60;63.00;;;;;;5078963;28;20941;-82
2022/02/09 12:38:38;;;;;;;1.23;1.13;;;22.80;63.80;;;;;;5079044;28;20469;-82
2022/02/09 12:41:13;;;;;;;1.40;0.90;;;22.80;61.90;;;;;;5078955;28;20456;-82
2022/02/09 12:44:01;;;;;;;1.57;0.90;;;23.00;60.80;;;;;;5078814;28;20452;-82
2022/02/09 12:46:32;;;;;;;0.97;0.97;;;23.00;62.50;;;;;;5078725;28;20453;-82
2022/02/09 12:49:06;;;;;;;1.30;1.20;;;23.20;61.80;;;;;;5079144;28;20506;-82
2022/02/09 12:51:33;;;;;;;0.73;0.73;;;23.10;60.20;;;;;;5078082;28;20456;-82
2022/02/09 12:54:01;;;;;;;1.57;0.83;;;23.40;61.20;;;;;;5078446;28;20475;-82
2022/02/09 12:56:30;;;;;;;0.80;0.80;;;23.60;60.00;;;;;;5077929;28;20834;-81
2022/02/09 12:59:02;;;;;;;0.50;0.50;;;23.50;58.90;;;;;;5077827;28;20460;-82
2022/02/09 13:01:42;;;;;;;0.80;0.80;;;22.50;59.40;;;;;;5077603;28;20447;-82
2022/02/09 13:04:09;;;;;;;0.70;0.67;;;22.30;61.90;;;;;;5078022;28;20473;-82
2022/02/09 13:06:36;;;;;;;1.63;1.20;;;22.80;61.00;;;;;;5075604;28;20455;-81
2022/02/09 13:09:04;;;;;;;0.80;0.60;;;23.10;59.50;;;;;;5074509;28;20491;-81
2022/02/09 13:11:33;;;;;;;0.70;0.70;;;22.70;58.60;;;;;;5075370;28;20447;-80
2022/02/09 13:14:07;;;;;;;0.97;0.73;;;22.20;59.60;;;;;;5081552;28;20456;-81
2022/02/09 13:16:46;;;;;;;1.87;0.90;;;22.50;61.40;;;;;;5083181;28;20800;-82
2022/02/09 13:25:36;;;;;;;0.77;0.60;;;23.50;57.40;;;;;;5082626;28;20518;-82
2022/02/09 14:10:16;;;;;;;1.40;0.90;;;22.80;55.20;;;;;;5082917;28;20487;-82
2022/02/09 14:11:10;;;;;;;0.60;0.60;;;22.70;55.60;;;;;;5088748;28;20446;-81
2022/02/09 14:14:00;;;;;;;0.60;0.60;;;22.80;56.20;;;;;;5089758;28;20455;-80
2022/02/09 14:16:38;;;;;;;0.60;0.60;;;22.80;55.60;;;;;;5089918;28;20445;-81
2022/02/09 14:19:23;;;;;;;1.07;0.90;;;22.60;55.60;;;;;;5089427;28;20451;-81
2022/02/09 14:52:30;;;;;;;1.73;1.13;;;19.30;62.90;;;;;;5081895;28;20990;-82
2022/02/09 14:55:01;;;;;;;1.10;1.10;;;18.80;63.10;;;;;;5081514;28;20960;-83
2022/02/09 14:57:32;;;;;;;1.73;1.50;;;17.90;64.20;;;;;;5081783;28;20471;-81
2022/02/09 15:00:09;;;;;;;2.47;1.53;;;17.50;66.00;;;;;;5081564;28;20454;-83
2022/02/09 15:02:50;;;;;;;2.77;1.70;;;17.70;66.30;;;;;;5081346;28;20445;-82
2022/02/09 15:05:54;;;;;;;3.80;1.47;;;17.30;67.20;;;;;;5081537;28;20457;-82
2022/02/09 15:08:29;;;;;;;2.40;1.23;;;16.70;69.30;;;;;;5080322;28;20504;-82
2022/02/09 15:11:07;;;;;;;1.73;1.57;;;16.80;70.00;;;;;;5080787;28;20455;-82
2022/02/09 15:13:42;;;;;;;1.43;1.13;;;16.50;70.00;;;;;;5080135;28;20789;-82
2022/02/09 15:16:18;;;;;;;1.50;1.30;;;16.50;70.60;;;;;;5079828;28;20535;-82
2022/02/09 15:24:12;;;;;;;3.10;2.27;;;16.20;73.10;;;;;;5078293;28;20447;-82
2022/02/09 15:26:39;;;;;;;2.43;2.00;;;16.40;73.50;;;;;;5079727;28;20828;-81
2022/02/09 15:29:05;;;;;;;3.87;1.80;;;16.70;72.70;;;;;;5079267;28;20484;-82
2022/02/09 15:31:39;;;;;;;1.93;1.30;;;16.50;71.70;;;;;;5081533;28;20520;-80
2022/02/09 15:34:14;;;;;;;2.57;1.50;;;16.70;70.80;;;;;;5080388;28;20786;-81
2022/02/09 15:36:53;;;;;;;2.50;1.47;;;16.60;71.40;;;;;;5081613;28;20436;-82
2022/02/09 15:39:21;;;;;;;2.20;1.67;;;16.50;71.50;;;;;;5081088;28;20448;-81
2022/02/09 15:42:03;;;;;;;2.77;1.77;;;16.10;72.30;;;;;;5078778;28;20541;-82
2022/02/09 15:58:34;;;;;;;0.80;0.80;;;14.80;76.00;;;;;;5078431;28;20460;-82
2022/02/09 16:07:02;;;;;;;1.60;1.50;;;14.40;77.60;;;;;;5081405;28;20430;-81
2022/02/09 16:09:27;;;;;;;3.10;1.73;;;14.50;79.10;;;;;;5082029;28;20512;-80
2022/02/09 16:23:05;;;;;;;4.20;3.67;;;13.10;85.40;;;;;;5078853;28;20492;-80
2022/02/09 16:25:52;;;;;;;3.50;3.20;;;12.90;86.70;;;;;;5081535;28;20500;-80
2022/02/09 16:34:21;;;;;;;3.53;2.10;;;12.60;88.60;;;;;;5079248;28;20436;-81
2022/02/09 16:45:16;;;;;;;5.97;2.67;;;12.00;91.00;;;;;;5079307;28;20476;-82
2022/02/09 16:47:55;;;;;;;2.37;2.17;;;12.00;91.40;;;;;;5072793;28;20484;-79
2022/02/09 16:50:27;;;;;;;3.93;2.70;;;11.90;91.80;;;;;;5078453;28;20450;-79
2022/02/09 16:53:01;;;;;;;3.53;2.00;;;11.90;92.20;;;;;;5075555;28;20812;-80
2022/02/09 17:20:11;;;;;;;9.90;8.90;;;10.30;99.30;;;;;;5073297;28;20472;-81
2022/02/09 17:22:37;;;;;;;45.90;35.15;;;10.40;99.30;;;;;;5075576;28;20499;-82
2022/02/09 17:25:06;;;;;;;33.90;25.80;;;10.30;99.60;;;;;;5075521;28;20207;-80
2022/02/09 17:27:32;;;;;;;12.93;11.32;;;10.10;99.90;;;;;;5075367;28;20492;-81
2022/02/09 17:30:27;;;;;;;10.10;7.73;;;10.00;99.90;;;;;;5075684;28;20220;-82
2022/02/09 17:33:06;;;;;;;9.27;6.50;;;10.00;99.90;;;;;;5064927;28;20892;-81
2022/02/09 17:35:41;;;;;;;7.40;5.10;;;10.00;99.90;;;;;;5075703;28;20871;-80
2022/02/09 17:38:36;;;;;;;196.38;160.55;;;10.10;99.90;;;;;;5075823;28;20556;-81
2022/02/09 17:57:36;;;;;;;74.18;67.18;;;9.60;99.90;;;;;;5064433;28;20576;-82
2022/02/09 18:00:14;;;;;;;9.45;7.63;;;9.60;99.90;;;;;;5070760;28;20202;-81
2022/02/09 18:02:43;;;;;;;60.67;55.33;;;9.30;99.90;;;;;;5071926;28;20688;-81
2022/02/09 18:05:17;;;;;;;40.13;36.72;;;9.30;99.90;;;;;;5075282;28;20221;-81
2022/02/09 18:07:46;;;;;;;57.92;52.50;;;9.40;99.90;;;;;;5078836;28;20586;-82
2022/02/09 18:10:22;;;;;;;34.60;31.15;;;9.30;99.90;;;;;;5078175;28;20481;-82
2022/02/09 18:13:25;;;;;;;65.78;59.17;;;9.30;99.90;;;;;;5079760;28;20206;-82
2022/02/09 18:29:34;;;;;;;510.02;390.58;;;8.90;99.90;;;;;;5079677;28;20274;-80
2022/02/09 18:32:26;;;;;;;50.95;40.78;;;8.80;99.90;;;;;;5078790;28;20223;-81
2022/02/09 18:38:00;;;;;;;15.38;13.80;;;8.60;99.90;;;;;;5084241;28;20239;-80
2022/02/09 18:43:11;;;;;;;68.53;46.25;;;8.30;99.90;;;;;;5049992;28;20272;-79
2022/02/09 18:45:44;;;;;;;10.73;9.38;;;8.30;99.90;;;;;;5076067;28;20667;-79
2022/02/09 18:48:25;;;;;;;9.30;8.40;;;8.30;99.90;;;;;;5078509;28;20221;-80
2022/02/09 18:59:31;;;;;;;11.90;7.93;;;7.90;99.90;;;;;;5074468;28;20200;-79
2022/02/09 19:02:32;;;;;;;5.72;5.20;;;7.90;99.90;;;;;;5075551;28;20258;-79
2022/02/09 19:05:11;;;;;;;8.05;6.65;;;7.90;99.90;;;;;;5076108;28;20224;-78
2022/02/09 19:07:55;;;;;;;35.33;23.65;;;7.90;99.90;;;;;;5075703;28;20292;-79
2022/02/09 19:16:11;;;;;;;9.60;6.75;;;7.80;99.90;;;;;;5074599;28;20231;-79
2022/02/09 19:18:51;;;;;;;8.93;6.88;;;7.80;99.90;;;;;;5073466;28;20245;-78
2022/02/09 19:27:02;;;;;;;13.05;5.88;;;7.80;99.90;;;;;;5073666;28;20204;-79
2022/02/09 19:29:57;;;;;;;4.95;4.45;;;7.70;99.90;;;;;;5072907;28;20224;-80
2022/02/09 19:32:34;;;;;;;6.43;4.18;;;7.70;99.90;;;;;;5073504;28;20189;-79
2022/02/09 19:40:49;;;;;;;7.80;4.75;;;7.60;99.90;;;;;;5079594;28;20308;-79
2022/02/09 19:46:30;;;;;;;59.97;44.67;;;7.50;99.90;;;;;;5073839;28;20219;-79
2022/02/09 19:49:08;;;;;;;12.23;11.02;;;7.50;99.90;;;;;;5072951;28;20229;-79
2022/02/09 19:51:42;;;;;;;7.13;5.47;;;7.50;99.90;;;;;;5073113;28;20209;-79
2022/02/09 19:54:14;;;;;;;4.90;4.47;;;7.40;99.90;;;;;;5073532;28;20208;-79
2022/02/09 19:56:48;;;;;;;5.82;5.32;;;7.40;99.90;;;;;;5072749;28;20655;-80
2022/02/09 19:59:17;;;;;;;7.45;5.03;;;7.30;99.90;;;;;;5074633;28;20221;-80
2022/02/09 20:01:45;;;;;;;4.78;4.38;;;7.30;99.90;;;;;;5074181;28;20208;-79
2022/02/09 20:04:12;;;;;;;6.47;4.78;;;7.30;99.90;;;;;;5075026;28;20207;-78
2022/02/09 20:06:41;;;;;;;4.80;3.75;;;7.30;99.90;;;;;;5073452;28;20212;-79
2022/02/09 20:09:08;;;;;;;14.63;4.80;;;7.30;99.90;;;;;;5074234;28;20608;-79
2022/02/09 20:11:37;;;;;;;7.20;4.75;;;7.20;99.90;;;;;;5074109;28;20557;-79
2022/02/09 20:14:04;;;;;;;6.15;4.60;;;7.20;99.90;;;;;;5068877;28;20555;-79
2022/02/09 20:16:31;;;;;;;4.47;3.40;;;7.10;99.90;;;;;;5052861;28;20210;-79
2022/02/09 20:18:59;;;;;;;6.25;4.20;;;7.00;99.90;;;;;;5060510;28;20228;-78
2022/02/09 20:21:27;;;;;;;5.55;4.10;;;7.00;99.90;;;;;;5072894;28;20262;-77
2022/02/09 20:23:56;;;;;;;5.28;4.88;;;6.90;99.90;;;;;;5073113;28;20225;-78
2022/02/09 20:26:25;;;;;;;7.32;3.85;;;6.90;99.90;;;;;;5075486;28;20221;-79
2022/02/09 20:28:58;;;;;;;4.90;4.50;;;7.00;99.90;;;;;;5076689;28;20324;-80
2022/02/09 20:31:29;;;;;;;3.67;3.38;;;6.90;99.90;;;;;;5074679;28;20231;-80
2022/02/09 20:34:00;;;;;;;3.25;3.05;;;6.90;99.90;;;;;;5079865;28;20204;-78
2022/02/09 20:36:28;;;;;;;3.97;3.60;;;6.90;99.90;;;;;;5079289;28;20691;-80
2022/02/09 20:38:59;;;;;;;4.63;3.85;;;6.90;99.90;;;;;;5074485;28;20213;-79
2022/02/09 20:41:26;;;;;;;5.78;4.32;;;7.00;99.90;;;;;;5072204;28;20201;-80
2022/02/09 20:44:04;;;;;;;6.18;3.50;;;7.00;99.90;;;;;;5076098;28;20215;-80
2022/02/09 20:46:35;;;;;;;4.72;3.85;;;7.00;99.90;;;;;;5078096;28;20201;-79
2022/02/09 20:49:02;;;;;;;4.68;4.03;;;7.00;99.90;;;;;;5076323;28;20212;-80
2022/02/09 20:51:32;;;;;;;4.22;3.83;;;7.00;99.90;;;;;;5075625;28;20216;-79
2022/02/09 20:54:00;;;;;;;3.92;3.63;;;7.00;99.90;;;;;;5076286;28;20228;-80
2022/02/09 20:56:27;;;;;;;4.32;3.80;;;7.00;99.90;;;;;;5076662;28;20212;-80
2022/02/09 20:58:59;;;;;;;4.53;4.22;;;7.00;99.90;;;;;;5076177;28;20228;-80
2022/02/09 21:01:34;;;;;;;5.68;5.15;;;7.00;99.90;;;;;;5075840;28;20295;-81
2022/02/09 21:04:04;;;;;;;5.55;4.80;;;7.00;99.90;;;;;;5076140;28;20295;-80
2022/02/09 21:06:40;;;;;;;5.05;4.70;;;7.00;99.90;;;;;;5077330;28;20205;-79
2022/02/09 21:09:23;;;;;;;5.25;4.63;;;7.20;99.90;;;;;;5076589;28;20697;-80
2022/02/09 21:11:59;;;;;;;5.97;5.43;;;7.10;99.90;;;;;;5075364;28;20204;-79
2022/02/09 21:14:47;;;;;;;6.00;4.32;;;7.00;99.90;;;;;;5075897;28;20653;-79
2022/02/09 21:17:26;;;;;;;6.35;5.85;;;7.00;99.90;;;;;;5075715;28;20272;-81
2022/02/09 21:20:21;;;;;;;4.95;4.55;;;7.00;99.90;;;;;;5077215;28;20207;-80
2022/02/09 21:23:13;;;;;;;4.75;4.45;;;7.00;99.90;;;;;;5078919;28;20262;-79
2022/02/09 21:26:22;;;;;;;4.63;4.22;;;7.00;99.90;;;;;;5080872;28;20213;-80
2022/02/09 21:45:35;;;;;;;5.45;4.95;;;6.70;99.90;;;;;;5073309;28;20212;-80
2022/02/09 21:56:20;;;;;;;6.18;4.82;;;6.60;99.90;;;;;;5085177;28;20204;-77
2022/02/09 21:58:59;;;;;;;6.72;5.32;;;6.50;99.90;;;;;;5086196;28;20713;-79
2022/02/09 22:16:11;;;;;;;7.03;4.38;;;6.40;99.90;;;;;;5086284;28;20260;-80
2022/02/09 22:21:15;;;;;;;7.70;5.43;;;6.40;99.90;;;;;;5084803;28;20287;-79
2022/02/09 22:26:50;;;;;;;5.97;5.15;;;6.40;99.90;;;;;;5058939;28;20197;-80
2022/02/09 22:29:37;;;;;;;5.03;4.57;;;6.40;99.90;;;;;;5084193;28;20700;-79
2022/02/09 22:32:27;;;;;;;6.03;5.55;;;6.40;99.90;;;;;;5076477;28;20209;-78
2022/02/09 22:45:29;;;;;;;5.97;5.00;;;6.40;99.90;;;;;;5071751;28;20197;-79
2022/02/09 22:46:44;;;;;;;5.10;3.83;;;6.30;99.90;;;;;;5077771;28;20576;-80
2022/02/09 22:49:16;;;;;;;6.78;6.10;;;6.20;99.90;;;;;;5077156;28;20282;-79
2022/02/09 22:54:34;;;;;;;8.18;5.95;;;6.20;99.90;;;;;;5059604;28;20247;-81
2022/02/09 22:57:01;;;;;;;4.82;4.43;;;6.20;99.90;;;;;;5082267;28;20223;-81
2022/02/09 22:59:33;;;;;;;4.78;4.38;;;6.10;99.90;;;;;;5082345;28;20763;-81
2022/02/09 23:02:04;;;;;;;4.35;4.05;;;6.00;99.90;;;;;;5086417;28;20197;-81
2022/02/09 23:04:42;;;;;;;5.07;4.68;;;6.00;99.90;;;;;;5084811;28;20190;-80
2022/02/09 23:07:21;;;;;;;4.40;4.00;;;5.90;99.90;;;;;;5084056;28;20228;-80
2022/02/09 23:10:02;;;;;;;4.95;4.55;;;5.90;99.90;;;;;;5084143;28;20217;-80
2022/02/09 23:12:37;;;;;;;6.35;4.13;;;5.90;99.90;;;;;;5084087;28;20209;-80
2022/02/09 23:15:18;;;;;;;5.53;4.47;;;5.80;99.90;;;;;;5084416;28;20299;-80
2022/02/09 23:21:12;;;;;;;5.18;4.70;;;5.80;99.90;;;;;;5083261;28;20232;-80
2022/02/09 23:23:47;;;;;;;6.45;4.90;;;5.90;99.90;;;;;;5065204;28;20202;-80
